sensor_id;sensor_type;location;lat;lon;timestamp;pressure;altitude;pressure_sealevel;temperature
4421;BMP180;11824;51.178;13.546;2022-09-01T00:00:01;100823.00;;;14.70
4421;BMP180;11824;51.178;13.546;2022-09-01T00:02:30;100825.00;;;14.70
4421;BMP180;11824;51.178;13.546;2022-09-01T00:05:00;100834.00;;;14.70
4421;BMP180;11824;51.178;13.546;2022-09-01T00:07:30;100828.00;;;14.80
4421;BMP180;11824;51.178;13.546;2022-09-01T00:10:05;100827.00;;;14.80
4421;BMP180;11824;51.178;13.546;2022-09-01T00:12:35;100820.00;;;14.80
4421;BMP180;11824;51.178;13.546;2022-09-01T00:15:04;100826.00;;;14.80
4421;BMP180;11824;51.178;13.546;2022-09-01T00:17:34;100835.00;;;14.90
4421;BMP180;11824;51.178;13.546;2022-09-01T00:20:05;100819.00;;;14.90
4421;BMP180;11824;51.178;13.546;2022-09-01T00:22:34;100831.00;;;14.80
4421;BMP180;11824;51.178;13.546;2022-09-01T00:25:03;100832.00;;;14.80
4421;BMP180;11824;51.178;13.546;2022-09-01T00:27:32;100834.00;;;14.80
4421;BMP180;11824;51.178;13.546;2022-09-01T00:30:01;100830.00;;;14.70
4421;BMP180;11824;51.178;13.546;2022-09-01T00:32:30;100825.00;;;14.70
4421;BMP180;11824;51.178;13.546;2022-09-01T00:34:59;100834.00;;;14.60
4421;BMP180;11824;51.178;13.546;2022-09-01T00:37:29;100832.00;;;14.60
4421;BMP180;11824;51.178;13.546;2022-09-01T00:39:58;100824.00;;;14.50
4421;BMP180;11824;51.178;13.546;2022-09-01T00:42:27;100830.00;;;14.50
4421;BMP180;11824;51.178;13.546;2022-09-01T00:44:55;100833.00;;;14.40
4421;BMP180;11824;51.178;13.546;2022-09-01T00:47:24;100846.00;;;14.30
4421;BMP180;11824;51.178;13.546;2022-09-01T00:49:53;100829.00;;;14.30
4421;BMP180;11824;51.178;13.546;2022-09-01T00:52:28;100835.00;;;14.20
4421;BMP180;11824;51.178;13.546;2022-09-01T00:55:04;100827.00;;;14.20
4421;BMP180;11824;51.178;13.546;2022-09-01T00:57:35;100830.00;;;14.10
4421;BMP180;11824;51.178;13.546;2022-09-01T01:00:07;100827.00;;;14.10
4421;BMP180;11824;51.178;13.546;2022-09-01T01:02:38;100828.00;;;14.00
4421;BMP180;11824;51.178;13.546;2022-09-01T01:05:08;100832.00;;;14.00
4421;BMP180;11824;51.178;13.546;2022-09-01T01:07:42;100822.00;;;13.90
4421;BMP180;11824;51.178;13.546;2022-09-01T01:10:18;100819.00;;;13.90
4421;BMP180;11824;51.178;13.546;2022-09-01T01:12:48;100831.00;;;13.90
4421;BMP180;11824;51.178;13.546;2022-09-01T01:15:19;100819.00;;;13.80
4421;BMP180;11824;51.178;13.546;2022-09-01T01:17:47;100826.00;;;13.80
4421;BMP180;11824;51.178;13.546;2022-09-01T01:20:17;100822.00;;;13.80
4421;BMP180;11824;51.178;13.546;2022-09-01T01:23:11;100808.00;;;13.70
4421;BMP180;11824;51.178;13.546;2022-09-01T01:25:45;100817.00;;;13.70
4421;BMP180;11824;51.178;13.546;2022-09-01T01:28:17;100824.00;;;13.70
4421;BMP180;11824;51.178;13.546;2022-09-01T01:30:49;100827.00;;;13.70
4421;BMP180;11824;51.178;13.546;2022-09-01T01:33:20;100824.00;;;13.70
4421;BMP180;11824;51.178;13.546;2022-09-01T01:35:50;100821.00;;;13.70
4421;BMP180;11824;51.178;13.546;2022-09-01T01:38:19;100820.00;;;13.70
4421;BMP180;11824;51.178;13.546;2022-09-01T01:40:51;100824.00;;;13.70
4421;BMP180;11824;51.178;13.546;2022-09-01T01:43:22;100821.00;;;13.70
4421;BMP180;11824;51.178;13.546;2022-09-01T01:45:55;100826.00;;;13.70
4421;BMP180;11824;51.178;13.546;2022-09-01T01:48:25;100813.00;;;13.70
4421;BMP180;11824;51.178;13.546;2022-09-01T01:50:55;100828.00;;;13.70
4421;BMP180;11824;51.178;13.546;2022-09-01T01:53:26;100816.00;;;13.70
4421;BMP180;11824;51.178;13.546;2022-09-01T01:55:56;100817.00;;;13.80
4421;BMP180;11824;51.178;13.546;2022-09-01T01:58:26;100817.00;;;13.80
4421;BMP180;11824;51.178;13.546;2022-09-01T02:00:57;100812.00;;;13.80
4421;BMP180;11824;51.178;13.546;2022-09-01T02:03:31;100814.00;;;13.80
4421;BMP180;11824;51.178;13.546;2022-09-01T02:06:03;100826.00;;;13.80
4421;BMP180;11824;51.178;13.546;2022-09-01T02:08:35;100834.00;;;13.80
4421;BMP180;11824;51.178;13.546;2022-09-01T02:11:07;100821.00;;;13.80
4421;BMP180;11824;51.178;13.546;2022-09-01T02:13:36;100818.00;;;13.80
4421;BMP180;11824;51.178;13.546;2022-09-01T02:16:06;100818.00;;;13.80
4421;BMP180;11824;51.178;13.546;2022-09-01T02:18:40;100820.00;;;13.90
4421;BMP180;11824;51.178;13.546;2022-09-01T02:21:11;100814.00;;;13.90
4421;BMP180;11824;51.178;13.546;2022-09-01T02:23:46;100815.00;;;13.90
4421;BMP180;11824;51.178;13.546;2022-09-01T02:26:17;100815.00;;;13.90
4421;BMP180;11824;51.178;13.546;2022-09-01T02:28:50;100814.00;;;13.90
4421;BMP180;11824;51.178;13.546;2022-09-01T02:31:23;100814.00;;;13.90
4421;BMP180;11824;51.178;13.546;2022-09-01T02:33:52;100814.00;;;13.90
4421;BMP180;11824;51.178;13.546;2022-09-01T02:36:22;100807.00;;;13.90
4421;BMP180;11824;51.178;13.546;2022-09-01T02:38:53;100813.00;;;13.90
4421;BMP180;11824;51.178;13.546;2022-09-01T02:41:24;100806.00;;;13.80
4421;BMP180;11824;51.178;13.546;2022-09-01T02:44:01;100808.00;;;13.80
4421;BMP180;11824;51.178;13.546;2022-09-01T02:46:38;100819.00;;;13.80
4421;BMP180;11824;51.178;13.546;2022-09-01T02:49:12;100810.00;;;13.80
4421;BMP180;11824;51.178;13.546;2022-09-01T02:51:45;100818.00;;;13.80
4421;BMP180;11824;51.178;13.546;2022-09-01T02:54:16;100820.00;;;13.80
4421;BMP180;11824;51.178;13.546;2022-09-01T02:56:46;100813.00;;;13.70
4421;BMP180;11824;51.178;13.546;2022-09-01T02:59:17;100817.00;;;13.70
4421;BMP180;11824;51.178;13.546;2022-09-01T03:01:48;100807.00;;;13.70
4421;BMP180;11824;51.178;13.546;2022-09-01T03:04:19;100816.00;;;13.70
4421;BMP180;11824;51.178;13.546;2022-09-01T03:06:48;100808.00;;;13.70
4421;BMP180;11824;51.178;13.546;2022-09-01T03:09:21;100815.00;;;13.70
4421;BMP180;11824;51.178;13.546;2022-09-01T03:11:53;100818.00;;;13.70
4421;BMP180;11824;51.178;13.546;2022-09-01T03:14:22;100815.00;;;13.70
4421;BMP180;11824;51.178;13.546;2022-09-01T03:16:52;100818.00;;;13.70
4421;BMP180;11824;51.178;13.546;2022-09-01T03:19:21;100804.00;;;13.70
4421;BMP180;11824;51.178;13.546;2022-09-01T03:21:50;100800.00;;;13.70
4421;BMP180;11824;51.178;13.546;2022-09-01T03:24:19;100797.00;;;13.60
4421;BMP180;11824;51.178;13.546;2022-09-01T03:26:51;100796.00;;;13.60
4421;BMP180;11824;51.178;13.546;2022-09-01T03:29:20;100805.00;;;13.60
4421;BMP180;11824;51.178;13.546;2022-09-01T03:31:49;100809.00;;;13.50
4421;BMP180;11824;51.178;13.546;2022-09-01T03:34:18;100795.00;;;13.50
4421;BMP180;11824;51.178;13.546;2022-09-01T03:36:48;100796.00;;;13.50
4421;BMP180;11824;51.178;13.546;2022-09-01T03:39:18;100798.00;;;13.40
4421;BMP180;11824;51.178;13.546;2022-09-01T03:41:47;100793.00;;;13.40
4421;BMP180;11824;51.178;13.546;2022-09-01T03:44:17;100800.00;;;13.30
4421;BMP180;11824;51.178;13.546;2022-09-01T03:46:46;100799.00;;;13.30
4421;BMP180;11824;51.178;13.546;2022-09-01T03:49:15;100806.00;;;13.30
4421;BMP180;11824;51.178;13.546;2022-09-01T03:51:54;100802.00;;;13.20
4421;BMP180;11824;51.178;13.546;2022-09-01T03:54:23;100798.00;;;13.20
4421;BMP180;11824;51.178;13.546;2022-09-01T03:56:56;100798.00;;;13.20
4421;BMP180;11824;51.178;13.546;2022-09-01T03:59:29;100802.00;;;13.20
4421;BMP180;11824;51.178;13.546;2022-09-01T04:01:58;100812.00;;;13.20
4421;BMP180;11824;51.178;13.546;2022-09-01T04:04:29;100800.00;;;13.10
4421;BMP180;11824;51.178;13.546;2022-09-01T04:06:59;100807.00;;;13.10
4421;BMP180;11824;51.178;13.546;2022-09-01T04:09:28;100813.00;;;13.10
4421;BMP180;11824;51.178;13.546;2022-09-01T04:11:57;100803.00;;;13.10
4421;BMP180;11824;51.178;13.546;2022-09-01T04:14:27;100806.00;;;13.10
4421;BMP180;11824;51.178;13.546;2022-09-01T04:16:57;100808.00;;;13.10
4421;BMP180;11824;51.178;13.546;2022-09-01T04:19:42;100806.00;;;13.10
4421;BMP180;11824;51.178;13.546;2022-09-01T04:22:12;100797.00;;;13.10
4421;BMP180;11824;51.178;13.546;2022-09-01T04:24:42;100800.00;;;13.00
4421;BMP180;11824;51.178;13.546;2022-09-01T04:27:14;100798.00;;;13.00
4421;BMP180;11824;51.178;13.546;2022-09-01T04:29:57;100799.00;;;13.00
4421;BMP180;11824;51.178;13.546;2022-09-01T04:32:27;100800.00;;;13.00
4421;BMP180;11824;51.178;13.546;2022-09-01T04:34:57;100802.00;;;12.90
4421;BMP180;11824;51.178;13.546;2022-09-01T04:37:26;100798.00;;;13.00
4421;BMP180;11824;51.178;13.546;2022-09-01T04:39:56;100801.00;;;13.00
4421;BMP180;11824;51.178;13.546;2022-09-01T04:42:27;100799.00;;;13.00
4421;BMP180;11824;51.178;13.546;2022-09-01T04:45:00;100810.00;;;13.00
4421;BMP180;11824;51.178;13.546;2022-09-01T04:47:38;100812.00;;;13.00
4421;BMP180;11824;51.178;13.546;2022-09-01T04:50:10;100809.00;;;13.00
4421;BMP180;11824;51.178;13.546;2022-09-01T04:52:44;100816.00;;;13.00
4421;BMP180;11824;51.178;13.546;2022-09-01T04:55:14;100809.00;;;13.00
4421;BMP180;11824;51.178;13.546;2022-09-01T04:57:46;100817.00;;;13.00
4421;BMP180;11824;51.178;13.546;2022-09-01T05:00:20;100817.00;;;13.10
4421;BMP180;11824;51.178;13.546;2022-09-01T05:02:56;100815.00;;;13.10
4421;BMP180;11824;51.178;13.546;2022-09-01T05:05:36;100829.00;;;13.20
4421;BMP180;11824;51.178;13.546;2022-09-01T05:08:10;100826.00;;;13.20
4421;BMP180;11824;51.178;13.546;2022-09-01T05:10:51;100824.00;;;13.20
4421;BMP180;11824;51.178;13.546;2022-09-01T05:13:22;100833.00;;;13.30
4421;BMP180;11824;51.178;13.546;2022-09-01T05:16:05;100823.00;;;13.30
4421;BMP180;11824;51.178;13.546;2022-09-01T05:18:40;100820.00;;;13.40
4421;BMP180;11824;51.178;13.546;2022-09-01T05:21:11;100822.00;;;13.50
4421;BMP180;11824;51.178;13.546;2022-09-01T05:23:43;100831.00;;;13.50
4421;BMP180;11824;51.178;13.546;2022-09-01T05:26:14;100824.00;;;13.60
4421;BMP180;11824;51.178;13.546;2022-09-01T05:28:45;100831.00;;;13.70
4421;BMP180;11824;51.178;13.546;2022-09-01T05:31:16;100837.00;;;13.80
4421;BMP180;11824;51.178;13.546;2022-09-01T05:33:47;100827.00;;;13.90
4421;BMP180;11824;51.178;13.546;2022-09-01T05:36:19;100830.00;;;14.00
4421;BMP180;11824;51.178;13.546;2022-09-01T05:38:49;100833.00;;;14.10
4421;BMP180;11824;51.178;13.546;2022-09-01T05:41:19;100844.00;;;14.30
4421;BMP180;11824;51.178;13.546;2022-09-01T05:43:50;100835.00;;;14.50
4421;BMP180;11824;51.178;13.546;2022-09-01T05:46:28;100837.00;;;14.70
4421;BMP180;11824;51.178;13.546;2022-09-01T05:48:57;100839.00;;;14.80
4421;BMP180;11824;51.178;13.546;2022-09-01T05:51:27;100837.00;;;14.90
4421;BMP180;11824;51.178;13.546;2022-09-01T05:54:12;100838.00;;;15.00
4421;BMP180;11824;51.178;13.546;2022-09-01T05:56:42;100838.00;;;15.10
4421;BMP180;11824;51.178;13.546;2022-09-01T05:59:11;100843.00;;;15.10
4421;BMP180;11824;51.178;13.546;2022-09-01T06:01:51;100838.00;;;15.20
4421;BMP180;11824;51.178;13.546;2022-09-01T06:04:21;100833.00;;;15.30
4421;BMP180;11824;51.178;13.546;2022-09-01T06:06:53;100836.00;;;15.40
4421;BMP180;11824;51.178;13.546;2022-09-01T06:09:36;100837.00;;;15.50
4421;BMP180;11824;51.178;13.546;2022-09-01T06:12:06;100843.00;;;15.60
4421;BMP180;11824;51.178;13.546;2022-09-01T06:14:35;100839.00;;;15.80
4421;BMP180;11824;51.178;13.546;2022-09-01T06:17:10;100850.00;;;15.90
4421;BMP180;11824;51.178;13.546;2022-09-01T06:19:43;100833.00;;;16.10
4421;BMP180;11824;51.178;13.546;2022-09-01T06:22:15;100837.00;;;16.20
4421;BMP180;11824;51.178;13.546;2022-09-01T06:24:45;100839.00;;;16.30
4421;BMP180;11824;51.178;13.546;2022-09-01T06:27:21;100844.00;;;16.40
4421;BMP180;11824;51.178;13.546;2022-09-01T06:29:50;100850.00;;;16.40
4421;BMP180;11824;51.178;13.546;2022-09-01T06:32:21;100856.00;;;16.50
4421;BMP180;11824;51.178;13.546;2022-09-01T06:34:52;100846.00;;;16.60
4421;BMP180;11824;51.178;13.546;2022-09-01T06:37:24;100848.00;;;16.70
4421;BMP180;11824;51.178;13.546;2022-09-01T06:39:55;100854.00;;;16.80
4421;BMP180;11824;51.178;13.546;2022-09-01T06:42:24;100852.00;;;16.80
4421;BMP180;11824;51.178;13.546;2022-09-01T06:44:53;100852.00;;;16.90
4421;BMP180;11824;51.178;13.546;2022-09-01T06:47:23;100847.00;;;17.00
4421;BMP180;11824;51.178;13.546;2022-09-01T06:49:54;100859.00;;;17.00
4421;BMP180;11824;51.178;13.546;2022-09-01T06:52:25;100860.00;;;17.20
4421;BMP180;11824;51.178;13.546;2022-09-01T06:54:54;100858.00;;;17.30
4421;BMP180;11824;51.178;13.546;2022-09-01T06:57:24;100865.00;;;17.40
4421;BMP180;11824;51.178;13.546;2022-09-01T07:00:15;100864.00;;;17.60
4421;BMP180;11824;51.178;13.546;2022-09-01T07:02:53;100867.00;;;17.70
4421;BMP180;11824;51.178;13.546;2022-09-01T07:05:24;100870.00;;;17.80
4421;BMP180;11824;51.178;13.546;2022-09-01T07:08:14;100867.00;;;18.00
4421;BMP180;11824;51.178;13.546;2022-09-01T07:10:48;100864.00;;;18.00
4421;BMP180;11824;51.178;13.546;2022-09-01T07:13:37;100866.00;;;18.10
4421;BMP180;11824;51.178;13.546;2022-09-01T07:16:27;100870.00;;;18.10
4421;BMP180;11824;51.178;13.546;2022-09-01T07:19:03;100866.00;;;18.10
4421;BMP180;11824;51.178;13.546;2022-09-01T07:21:33;100880.00;;;18.10
4421;BMP180;11824;51.178;13.546;2022-09-01T07:24:07;100872.00;;;18.10
4421;BMP180;11824;51.178;13.546;2022-09-01T07:26:39;100877.00;;;18.20
4421;BMP180;11824;51.178;13.546;2022-09-01T07:29:16;100881.00;;;18.20
4421;BMP180;11824;51.178;13.546;2022-09-01T07:31:50;100884.00;;;18.30
4421;BMP180;11824;51.178;13.546;2022-09-01T07:34:43;100879.00;;;18.40
4421;BMP180;11824;51.178;13.546;2022-09-01T07:37:16;100878.00;;;18.60
4421;BMP180;11824;51.178;13.546;2022-09-01T07:40:12;100875.00;;;18.70
4421;BMP180;11824;51.178;13.546;2022-09-01T07:43:06;100883.00;;;18.80
4421;BMP180;11824;51.178;13.546;2022-09-01T07:45:37;100886.00;;;18.80
4421;BMP180;11824;51.178;13.546;2022-09-01T07:48:26;100876.00;;;18.90
4421;BMP180;11824;51.178;13.546;2022-09-01T07:51:18;100880.00;;;19.00
4421;BMP180;11824;51.178;13.546;2022-09-01T07:54:05;100883.00;;;19.00
4421;BMP180;11824;51.178;13.546;2022-09-01T07:56:34;100883.00;;;19.00
4421;BMP180;11824;51.178;13.546;2022-09-01T07:59:06;100884.00;;;19.10
4421;BMP180;11824;51.178;13.546;2022-09-01T08:01:41;100881.00;;;19.20
4421;BMP180;11824;51.178;13.546;2022-09-01T08:04:10;100884.00;;;19.20
4421;BMP180;11824;51.178;13.546;2022-09-01T08:06:40;100892.00;;;19.30
4421;BMP180;11824;51.178;13.546;2022-09-01T08:09:09;100883.00;;;19.30
4421;BMP180;11824;51.178;13.546;2022-09-01T08:12:00;100887.00;;;19.40
4421;BMP180;11824;51.178;13.546;2022-09-01T08:14:29;100886.00;;;19.50
4421;BMP180;11824;51.178;13.546;2022-09-01T08:17:00;100893.00;;;19.60
4421;BMP180;11824;51.178;13.546;2022-09-01T08:19:43;100895.00;;;19.60
4421;BMP180;11824;51.178;13.546;2022-09-01T08:22:15;100894.00;;;19.70
4421;BMP180;11824;51.178;13.546;2022-09-01T08:24:43;100902.00;;;19.70
4421;BMP180;11824;51.178;13.546;2022-09-01T08:27:12;100895.00;;;19.70
4421;BMP180;11824;51.178;13.546;2022-09-01T08:29:41;100897.00;;;19.70
4421;BMP180;11824;51.178;13.546;2022-09-01T08:32:10;100901.00;;;19.80
4421;BMP180;11824;51.178;13.546;2022-09-01T08:34:39;100901.00;;;19.90
4421;BMP180;11824;51.178;13.546;2022-09-01T08:37:09;100907.00;;;20.00
4421;BMP180;11824;51.178;13.546;2022-09-01T08:39:40;100895.00;;;20.10
4421;BMP180;11824;51.178;13.546;2022-09-01T08:42:15;100901.00;;;20.10
4421;BMP180;11824;51.178;13.546;2022-09-01T08:44:53;100908.00;;;20.20
4421;BMP180;11824;51.178;13.546;2022-09-01T08:47:25;100899.00;;;20.20
4421;BMP180;11824;51.178;13.546;2022-09-01T08:50:10;100902.00;;;20.20
4421;BMP180;11824;51.178;13.546;2022-09-01T08:52:42;100908.00;;;20.30
4421;BMP180;11824;51.178;13.546;2022-09-01T08:55:18;100906.00;;;20.40
4421;BMP180;11824;51.178;13.546;2022-09-01T08:57:54;100897.00;;;20.50
4421;BMP180;11824;51.178;13.546;2022-09-01T09:00:28;100891.00;;;20.60
4421;BMP180;11824;51.178;13.546;2022-09-01T09:03:05;100897.00;;;20.60
4421;BMP180;11824;51.178;13.546;2022-09-01T09:05:48;100896.00;;;20.70
4421;BMP180;11824;51.178;13.546;2022-09-01T09:08:44;100896.00;;;20.80
4421;BMP180;11824;51.178;13.546;2022-09-01T09:11:33;100896.00;;;20.90
4421;BMP180;11824;51.178;13.546;2022-09-01T09:14:13;100891.00;;;21.00
4421;BMP180;11824;51.178;13.546;2022-09-01T09:16:45;100896.00;;;21.00
4421;BMP180;11824;51.178;13.546;2022-09-01T09:19:22;100897.00;;;21.00
4421;BMP180;11824;51.178;13.546;2022-09-01T09:22:04;100900.00;;;21.00
4421;BMP180;11824;51.178;13.546;2022-09-01T09:24:39;100901.00;;;21.00
4421;BMP180;11824;51.178;13.546;2022-09-01T09:27:27;100905.00;;;20.90
4421;BMP180;11824;51.178;13.546;2022-09-01T09:29:59;100899.00;;;20.90
4421;BMP180;11824;51.178;13.546;2022-09-01T09:32:48;100892.00;;;20.90
4421;BMP180;11824;51.178;13.546;2022-09-01T09:35:38;100888.00;;;20.80
4421;BMP180;11824;51.178;13.546;2022-09-01T09:38:20;100896.00;;;20.80
4421;BMP180;11824;51.178;13.546;2022-09-01T09:40:58;100891.00;;;20.70
4421;BMP180;11824;51.178;13.546;2022-09-01T09:43:51;100892.00;;;20.70
4421;BMP180;11824;51.178;13.546;2022-09-01T09:46:32;100892.00;;;20.60
4421;BMP180;11824;51.178;13.546;2022-09-01T09:49:09;100887.00;;;20.60
4421;BMP180;11824;51.178;13.546;2022-09-01T09:51:41;100889.00;;;20.60
4421;BMP180;11824;51.178;13.546;2022-09-01T09:54:13;100883.00;;;20.60
4421;BMP180;11824;51.178;13.546;2022-09-01T09:56:43;100885.00;;;20.70
4421;BMP180;11824;51.178;13.546;2022-09-01T09:59:22;100886.00;;;20.90
4421;BMP180;11824;51.178;13.546;2022-09-01T10:02:21;100877.00;;;21.10
4421;BMP180;11824;51.178;13.546;2022-09-01T10:04:55;100885.00;;;21.20
4421;BMP180;11824;51.178;13.546;2022-09-01T10:07:27;100881.00;;;21.30
4421;BMP180;11824;51.178;13.546;2022-09-01T10:10:02;100879.00;;;21.40
4421;BMP180;11824;51.178;13.546;2022-09-01T10:12:31;100880.00;;;21.50
4421;BMP180;11824;51.178;13.546;2022-09-01T10:15:06;100882.00;;;21.60
4421;BMP180;11824;51.178;13.546;2022-09-01T10:17:41;100887.00;;;21.60
4421;BMP180;11824;51.178;13.546;2022-09-01T10:20:16;100877.00;;;21.60
4421;BMP180;11824;51.178;13.546;2022-09-01T10:22:48;100881.00;;;21.70
4421;BMP180;11824;51.178;13.546;2022-09-01T10:25:20;100873.00;;;21.70
4421;BMP180;11824;51.178;13.546;2022-09-01T10:27:52;100881.00;;;21.70
4421;BMP180;11824;51.178;13.546;2022-09-01T10:30:28;100889.00;;;21.70
4421;BMP180;11824;51.178;13.546;2022-09-01T10:32:59;100878.00;;;21.60
4421;BMP180;11824;51.178;13.546;2022-09-01T10:35:47;100873.00;;;21.70
4421;BMP180;11824;51.178;13.546;2022-09-01T10:38:19;100872.00;;;21.80
4421;BMP180;11824;51.178;13.546;2022-09-01T10:40:50;100869.00;;;21.80
4421;BMP180;11824;51.178;13.546;2022-09-01T10:43:42;100872.00;;;21.90
4421;BMP180;11824;51.178;13.546;2022-09-01T10:46:42;100870.00;;;21.90
4421;BMP180;11824;51.178;13.546;2022-09-01T10:55:22;100873.00;;;21.90
4421;BMP180;11824;51.178;13.546;2022-09-01T10:58:18;100877.00;;;21.90
4421;BMP180;11824;51.178;13.546;2022-09-01T11:01:10;100873.00;;;21.90
4421;BMP180;11824;51.178;13.546;2022-09-01T11:03:53;100858.00;;;21.90
4421;BMP180;11824;51.178;13.546;2022-09-01T11:09:39;100871.00;;;21.90
4421;BMP180;11824;51.178;13.546;2022-09-01T11:14:58;100879.00;;;22.00
4421;BMP180;11824;51.178;13.546;2022-09-01T11:17:30;100874.00;;;22.10
4421;BMP180;11824;51.178;13.546;2022-09-01T11:20:08;100865.00;;;22.20
4421;BMP180;11824;51.178;13.546;2022-09-01T11:22:39;100871.00;;;22.30
4421;BMP180;11824;51.178;13.546;2022-09-01T11:28:45;100875.00;;;22.50
4421;BMP180;11824;51.178;13.546;2022-09-01T11:31:25;100859.00;;;22.50
4421;BMP180;11824;51.178;13.546;2022-09-01T11:37:00;100869.00;;;22.50
4421;BMP180;11824;51.178;13.546;2022-09-01T11:39:39;100868.00;;;22.50
4421;BMP180;11824;51.178;13.546;2022-09-01T11:42:18;100869.00;;;22.50
4421;BMP180;11824;51.178;13.546;2022-09-01T11:44:53;100864.00;;;22.50
4421;BMP180;11824;51.178;13.546;2022-09-01T11:47:26;100865.00;;;22.60
4421;BMP180;11824;51.178;13.546;2022-09-01T11:49:58;100862.00;;;22.60
4421;BMP180;11824;51.178;13.546;2022-09-01T11:52:31;100872.00;;;22.70
4421;BMP180;11824;51.178;13.546;2022-09-01T11:55:06;100864.00;;;22.70
4421;BMP180;11824;51.178;13.546;2022-09-01T11:57:39;100861.00;;;22.70
4421;BMP180;11824;51.178;13.546;2022-09-01T12:00:11;100858.00;;;22.70
4421;BMP180;11824;51.178;13.546;2022-09-01T12:02:44;100870.00;;;22.70
4421;BMP180;11824;51.178;13.546;2022-09-01T12:05:27;100856.00;;;22.70
4421;BMP180;11824;51.178;13.546;2022-09-01T12:07:58;100855.00;;;22.60
4421;BMP180;11824;51.178;13.546;2022-09-01T12:10:31;100849.00;;;22.60
4421;BMP180;11824;51.178;13.546;2022-09-01T12:13:04;100850.00;;;22.50
4421;BMP180;11824;51.178;13.546;2022-09-01T12:15:34;100855.00;;;22.50
4421;BMP180;11824;51.178;13.546;2022-09-01T12:18:24;100849.00;;;22.50
4421;BMP180;11824;51.178;13.546;2022-09-01T12:20:56;100843.00;;;22.50
4421;BMP180;11824;51.178;13.546;2022-09-01T12:23:29;100850.00;;;22.40
4421;BMP180;11824;51.178;13.546;2022-09-01T12:26:01;100836.00;;;22.40
4421;BMP180;11824;51.178;13.546;2022-09-01T12:28:32;100844.00;;;22.40
4421;BMP180;11824;51.178;13.546;2022-09-01T12:31:04;100844.00;;;22.40
4421;BMP180;11824;51.178;13.546;2022-09-01T12:33:34;100844.00;;;22.30
4421;BMP180;11824;51.178;13.546;2022-09-01T12:36:14;100833.00;;;22.30
4421;BMP180;11824;51.178;13.546;2022-09-01T12:38:49;100830.00;;;22.20
4421;BMP180;11824;51.178;13.546;2022-09-01T12:41:26;100834.00;;;22.20
4421;BMP180;11824;51.178;13.546;2022-09-01T12:44:26;100826.00;;;22.20
4421;BMP180;11824;51.178;13.546;2022-09-01T12:46:58;100836.00;;;22.20
4421;BMP180;11824;51.178;13.546;2022-09-01T12:49:35;100833.00;;;22.20
4421;BMP180;11824;51.178;13.546;2022-09-01T12:52:23;100835.00;;;22.10
4421;BMP180;11824;51.178;13.546;2022-09-01T12:55:06;100832.00;;;22.20
4421;BMP180;11824;51.178;13.546;2022-09-01T12:57:38;100833.00;;;22.20
4421;BMP180;11824;51.178;13.546;2022-09-01T13:00:17;100824.00;;;22.10
4421;BMP180;11824;51.178;13.546;2022-09-01T13:02:49;100822.00;;;22.10
4421;BMP180;11824;51.178;13.546;2022-09-01T13:05:25;100818.00;;;22.10
4421;BMP180;11824;51.178;13.546;2022-09-01T13:08:02;100817.00;;;22.10
4421;BMP180;11824;51.178;13.546;2022-09-01T13:10:37;100809.00;;;22.10
4421;BMP180;11824;51.178;13.546;2022-09-01T13:13:08;100808.00;;;22.20
4421;BMP180;11824;51.178;13.546;2022-09-01T13:15:39;100806.00;;;22.30
4421;BMP180;11824;51.178;13.546;2022-09-01T13:18:09;100809.00;;;22.50
4421;BMP180;11824;51.178;13.546;2022-09-01T13:20:38;100804.00;;;22.60
4421;BMP180;11824;51.178;13.546;2022-09-01T13:23:08;100800.00;;;22.80
4421;BMP180;11824;51.178;13.546;2022-09-01T13:25:40;100790.00;;;23.00
4421;BMP180;11824;51.178;13.546;2022-09-01T13:28:10;100795.00;;;23.10
4421;BMP180;11824;51.178;13.546;2022-09-01T13:30:42;100791.00;;;23.30
4421;BMP180;11824;51.178;13.546;2022-09-01T13:33:11;100794.00;;;23.40
4421;BMP180;11824;51.178;13.546;2022-09-01T13:35:50;100781.00;;;23.50
4421;BMP180;11824;51.178;13.546;2022-09-01T13:38:19;100798.00;;;23.60
4421;BMP180;11824;51.178;13.546;2022-09-01T13:40:51;100795.00;;;23.60
4421;BMP180;11824;51.178;13.546;2022-09-01T13:43:22;100787.00;;;23.50
4421;BMP180;11824;51.178;13.546;2022-09-01T13:45:55;100790.00;;;23.50
4421;BMP180;11824;51.178;13.546;2022-09-01T13:48:26;100792.00;;;23.40
4421;BMP180;11824;51.178;13.546;2022-09-01T13:51:24;100799.00;;;23.30
4421;BMP180;11824;51.178;13.546;2022-09-01T13:53:54;100788.00;;;23.30
4421;BMP180;11824;51.178;13.546;2022-09-01T13:56:25;100786.00;;;23.30
4421;BMP180;11824;51.178;13.546;2022-09-01T13:58:54;100791.00;;;23.20
4421;BMP180;11824;51.178;13.546;2022-09-01T14:01:25;100790.00;;;23.10
4421;BMP180;11824;51.178;13.546;2022-09-01T14:03:54;100790.00;;;23.00
4421;BMP180;11824;51.178;13.546;2022-09-01T14:06:26;100810.00;;;22.90
4421;BMP180;11824;51.178;13.546;2022-09-01T14:08:57;100801.00;;;22.80
4421;BMP180;11824;51.178;13.546;2022-09-01T14:11:28;100789.00;;;22.70
4421;BMP180;11824;51.178;13.546;2022-09-01T14:13:58;100797.00;;;22.60
4421;BMP180;11824;51.178;13.546;2022-09-01T14:16:28;100800.00;;;22.50
4421;BMP180;11824;51.178;13.546;2022-09-01T14:18:57;100798.00;;;22.40
4421;BMP180;11824;51.178;13.546;2022-09-01T14:21:27;100807.00;;;22.30
4421;BMP180;11824;51.178;13.546;2022-09-01T14:23:56;100800.00;;;22.20
4421;BMP180;11824;51.178;13.546;2022-09-01T14:26:26;100804.00;;;22.10
4421;BMP180;11824;51.178;13.546;2022-09-01T14:28:56;100803.00;;;22.10
4421;BMP180;11824;51.178;13.546;2022-09-01T14:31:29;100799.00;;;22.00
4421;BMP180;11824;51.178;13.546;2022-09-01T14:33:58;100797.00;;;21.90
4421;BMP180;11824;51.178;13.546;2022-09-01T14:36:27;100794.00;;;21.90
4421;BMP180;11824;51.178;13.546;2022-09-01T14:38:56;100793.00;;;21.80
4421;BMP180;11824;51.178;13.546;2022-09-01T14:41:26;100795.00;;;21.80
4421;BMP180;11824;51.178;13.546;2022-09-01T14:43:56;100800.00;;;21.80
4421;BMP180;11824;51.178;13.546;2022-09-01T14:46:30;100799.00;;;21.70
4421;BMP180;11824;51.178;13.546;2022-09-01T14:49:00;100791.00;;;21.70
4421;BMP180;11824;51.178;13.546;2022-09-01T14:51:30;100787.00;;;21.70